Time;durP1;ratioP1;P1;durP2;ratioP2;P2;SDS_P1;SDS_P2;PMS_P1;PMS_P2;Temp;Humidity;BMP_temperature;BMP_pressure;BME280_temperature;BME280_humidity;BME280_pressure;Samples;Min_cycle;Max_cycle;Signal;HPM_P1;HPM_P2
2021/10/19 00:02:07;;;;;;;0.70;0.60;;;;;;;11.89;100.00;-21005.44;4976898;28;20796;-71
2021/10/19 00:04:35;;;;;;;0.80;0.77;;;;;;;11.88;100.00;-21005.16;4977107;28;20440;-71
2021/10/19 00:07:02;;;;;;;0.70;0.60;;;;;;;11.90;100.00;-21005.56;4977088;28;20432;-71
2021/10/19 00:09:29;;;;;;;0.90;0.73;;;;;;;11.90;100.00;-21005.56;4966864;28;20463;-71
2021/10/19 00:11:58;;;;;;;0.70;0.70;;;;;;;11.92;100.00;-21006.13;4976056;28;20691;-72
2021/10/19 00:14:24;;;;;;;0.70;0.60;;;;;;;11.88;100.00;-21005.16;4976639;28;20874;-73
2021/10/19 00:16:51;;;;;;;0.70;0.60;;;;;;;11.86;100.00;-21004.59;4991576;28;20435;-71
2021/10/19 00:19:18;;;;;;;0.70;0.60;;;;;;;11.91;100.00;-21005.97;4976776;28;20417;-73
2021/10/19 00:21:45;;;;;;;1.27;0.80;;;;;;;11.89;100.00;-21005.44;4976778;28;20497;-73
2021/10/19 00:24:13;;;;;;;1.37;1.00;;;;;;;11.97;100.00;-21007.63;4976476;28;20976;-73
2021/10/19 00:26:40;;;;;;;0.80;0.70;;;;;;;12.00;100.00;-21008.31;4976421;28;20463;-72
2021/10/19 00:29:08;;;;;;;1.00;1.00;;;;;;;12.06;100.00;-21010.13;4972161;28;20495;-73
2021/10/19 00:31:39;;;;;;;0.70;0.63;;;;;;;12.20;100.00;-21013.72;4957237;28;20527;-73
2021/10/19 00:34:11;;;;;;;0.70;0.70;;;;;;;12.19;100.00;-21013.44;4959265;28;20534;-72
2021/10/19 00:36:42;;;;;;;0.70;0.60;;;;;;;12.19;100.00;-21013.56;4975807;28;20438;-72
2021/10/19 00:39:19;;;;;;;0.70;0.60;;;;;;;12.21;100.00;-21014.00;4967930;28;20480;-73
2021/10/19 00:41:51;;;;;;;0.70;0.63;;;;;;;12.21;100.00;-21014.00;4972092;28;20937;-72
2021/10/19 00:44:28;;;;;;;0.70;0.60;;;;;;;12.18;100.00;-21013.28;4990762;28;21010;-72
2021/10/19 00:46:58;;;;;;;0.70;0.60;;;;;;;12.27;100.00;-21015.66;4975203;28;20788;-73
2021/10/19 00:49:30;;;;;;;0.70;0.60;;;;;;;12.20;100.00;-21013.72;4976383;28;20513;-71
2021/10/19 00:52:09;;;;;;;0.70;0.60;;;;;;;12.28;100.00;-21016.06;4974974;28;20964;-73
2021/10/19 00:54:43;;;;;;;0.87;0.87;;;;;;;12.35;100.00;-21017.72;4974347;28;20422;-73
2021/10/19 00:57:16;;;;;;;1.30;1.17;;;;;;;12.33;100.00;-21017.28;4975126;28;20495;-72
2021/10/19 00:59:52;;;;;;;1.73;1.63;;;;;;;12.25;100.00;-21015.09;4975125;28;20429;-73
2021/10/19 01:02:26;;;;;;;0.70;0.60;;;;;;;12.27;100.00;-21015.66;4959101;28;20444;-73
2021/10/19 01:04:58;;;;;;;0.70;0.60;;;;;;;12.37;100.00;-21018.25;4974309;28;20459;-73
2021/10/19 01:07:31;;;;;;;1.10;1.00;;;;;;;12.30;100.00;-21016.47;4974423;28;20479;-73
2021/10/19 01:10:06;;;;;;;0.70;0.67;;;;;;;12.38;100.00;-21018.53;4960931;28;20507;-73
2021/10/19 01:12:42;;;;;;;0.80;0.70;;;;;;;12.29;100.00;-21016.19;4974144;28;20483;-71
2021/10/19 01:15:18;;;;;;;1.53;0.97;;;;;;;12.29;100.00;-21016.34;4974782;28;20505;-71
2021/10/19 01:17:50;;;;;;;0.70;0.60;;;;;;;12.40;100.00;-21019.22;4975975;28;20419;-72
2021/10/19 01:20:28;;;;;;;1.10;1.00;;;;;;;12.37;100.00;-21018.25;4990331;28;20424;-71
2021/10/19 01:23:00;;;;;;;1.20;1.00;;;;;;;12.33;100.00;-21017.44;4990108;28;20627;-71
2021/10/19 01:25:36;;;;;;;0.77;0.77;;;;;;;12.34;100.00;-21017.56;4970599;28;20511;-72
2021/10/19 01:28:08;;;;;;;0.90;0.90;;;;;;;12.28;100.00;-21015.91;4954877;29;20442;-72
2021/10/19 01:30:41;;;;;;;0.70;0.60;;;;;;;12.38;100.00;-21018.69;4986781;28;20457;-72
2021/10/19 01:33:19;;;;;;;0.90;0.80;;;;;;;12.35;100.00;-21017.84;4987885;28;20472;-72
2021/10/19 01:35:56;;;;;;;0.70;0.60;;;;;;;12.39;100.00;-21018.97;4956318;28;20485;-73
2021/10/19 01:38:26;;;;;;;0.70;0.70;;;;;;;12.47;100.00;-21021.03;4974635;28;21001;-74
2021/10/19 01:40:54;;;;;;;0.80;0.80;;;;;;;12.46;100.00;-21020.75;4955304;28;20824;-72
2021/10/19 01:43:23;;;;;;;0.70;0.60;;;;;;;12.54;100.00;-21023.09;4954965;29;20431;-74
2021/10/19 01:45:52;;;;;;;0.70;0.60;;;;;;;12.53;100.00;-21022.81;4955718;28;20417;-72
2021/10/19 01:48:20;;;;;;;0.90;0.90;;;;;;;12.53;100.00;-21022.69;4956015;28;20420;-71
2021/10/19 01:50:47;;;;;;;1.53;1.37;;;;;;;12.52;100.00;-21022.53;4955856;28;20459;-71
2021/10/19 01:53:15;;;;;;;0.70;0.60;;;;;;;12.39;100.00;-21018.97;4956059;29;20529;-72
2021/10/19 01:55:43;;;;;;;0.70;0.60;;;;;;;12.45;100.00;-21020.63;4956588;28;20425;-73
2021/10/19 01:58:10;;;;;;;0.70;0.57;;;;;;;12.48;100.00;-21021.31;4939095;29;20472;-73
2021/10/19 02:00:40;;;;;;;0.70;0.60;;;;;;;12.34;100.00;-21017.56;4955493;28;20522;-75
2021/10/19 02:03:09;;;;;;;0.70;0.60;;;;;;;12.36;100.00;-21018.13;4955466;28;20434;-74
2021/10/19 02:05:36;;;;;;;0.70;0.63;;;;;;;12.18;100.00;-21013.16;4959781;28;20947;-71
2021/10/19 02:08:06;;;;;;;0.80;0.80;;;;;;;12.22;100.00;-21014.41;4974699;28;20499;-72
2021/10/19 02:10:35;;;;;;;1.03;1.00;;;;;;;12.12;100.00;-21011.50;4974046;28;20476;-70
2021/10/19 02:13:04;;;;;;;1.37;1.27;;;;;;;12.02;100.00;-21008.88;4973354;28;20432;-72
2021/10/19 02:15:32;;;;;;;0.70;0.60;;;;;;;12.02;100.00;-21009.00;4973722;28;20477;-73
2021/10/19 02:18:00;;;;;;;1.23;1.07;;;;;;;12.01;100.00;-21008.75;4974613;28;20849;-70
2021/10/19 02:20:27;;;;;;;0.70;0.60;;;;;;;11.99;100.00;-21008.06;4974325;28;20431;-73
2021/10/19 02:22:54;;;;;;;0.70;0.60;;;;;;;11.96;100.00;-21007.34;4989141;28;20462;-72
2021/10/19 02:25:22;;;;;;;0.70;0.60;;;;;;;11.82;100.00;-21003.63;4974223;28;20957;-72
2021/10/19 02:27:50;;;;;;;0.70;0.53;;;;;;;11.81;100.00;-21003.22;4973328;28;20471;-70
2021/10/19 02:30:18;;;;;;;1.47;0.90;;;;;;;11.80;100.00;-21002.94;4972424;28;20814;-71
2021/10/19 02:32:46;;;;;;;0.80;0.77;;;;;;;11.75;100.00;-21001.56;4974510;28;20446;-71
2021/10/19 02:35:14;;;;;;;0.70;0.60;;;;;;;11.76;100.00;-21001.97;4972930;28;20446;-72
2021/10/19 02:37:42;;;;;;;1.27;1.17;;;;;;;11.70;100.00;-21000.31;4974087;28;20462;-70
2021/10/19 02:40:11;;;;;;;1.90;1.37;;;;;;;11.68;100.00;-20999.63;4973636;28;20427;-71
2021/10/19 02:42:39;;;;;;;0.70;0.60;;;;;;;11.69;100.00;-21000.03;4973987;28;20432;-70
2021/10/19 02:45:11;;;;;;;0.70;0.60;;;;;;;11.68;100.00;-20999.63;4974073;28;20414;-73
2021/10/19 02:47:39;;;;;;;0.70;0.60;;;;;;;11.57;100.00;-20996.84;4973794;28;20497;-71
2021/10/19 02:50:08;;;;;;;0.77;0.77;;;;;;;11.61;100.00;-20997.81;4973856;28;20466;-71
2021/10/19 02:52:35;;;;;;;0.70;0.60;;;;;;;11.63;100.00;-20998.25;4974337;28;20480;-72
2021/10/19 02:55:03;;;;;;;0.70;0.60;;;;;;;11.59;100.00;-20997.41;4972647;28;20494;-71
2021/10/19 02:57:31;;;;;;;0.70;0.60;;;;;;;11.66;100.00;-20999.06;4972990;28;20431;-72
2021/10/19 02:59:59;;;;;;;0.70;0.60;;;;;;;11.66;100.00;-20999.06;4972347;28;20502;-72
2021/10/19 03:02:27;;;;;;;0.70;0.60;;;;;;;11.65;100.00;-20998.94;4973685;28;20983;-71
2021/10/19 03:04:55;;;;;;;0.70;0.70;;;;;;;11.67;100.00;-20999.47;4973917;28;20463;-73
2021/10/19 03:07:22;;;;;;;1.27;1.17;;;;;;;11.65;100.00;-20998.78;4956862;28;20471;-71
2021/10/19 03:09:48;;;;;;;1.20;0.83;;;;;;;11.72;100.00;-21000.72;4973101;28;20444;-71
2021/10/19 03:12:16;;;;;;;1.00;0.90;;;;;;;11.61;100.00;-20997.97;4973207;28;20440;-73
2021/10/19 03:14:46;;;;;;;0.70;0.70;;;;;;;11.64;100.00;-20998.50;4972709;28;20923;-73
2021/10/19 03:17:14;;;;;;;0.70;0.60;;;;;;;11.70;100.00;-21000.16;4972640;28;20485;-72
2021/10/19 03:19:42;;;;;;;0.70;0.70;;;;;;;11.72;100.00;-21000.72;4973362;28;20424;-72
2021/10/19 03:22:09;;;;;;;0.70;0.60;;;;;;;11.73;100.00;-21001.00;4973504;28;20960;-72
2021/10/19 03:24:37;;;;;;;0.70;0.60;;;;;;;11.76;100.00;-21001.84;4976534;28;20444;-73
2021/10/19 03:27:05;;;;;;;0.70;0.60;;;;;;;11.80;100.00;-21002.94;4977201;28;20526;-72
2021/10/19 03:29:33;;;;;;;0.80;0.70;;;;;;;11.81;100.00;-21003.22;4977526;28;20967;-71
2021/10/19 03:32:02;;;;;;;0.80;0.77;;;;;;;11.82;100.00;-21003.50;4976083;28;20565;-74
2021/10/19 03:34:29;;;;;;;0.70;0.60;;;;;;;11.92;100.00;-21006.13;4976464;28;20519;-74
2021/10/19 03:37:00;;;;;;;0.87;0.87;;;;;;;11.92;100.00;-21006.25;4976423;28;20444;-73
2021/10/19 03:39:27;;;;;;;0.90;0.90;;;;;;;11.88;100.00;-21005.00;4971905;28;20445;-72
2021/10/19 03:41:54;;;;;;;0.90;0.90;;;;;;;11.88;100.00;-21005.16;4972981;28;20542;-72
2021/10/19 03:44:21;;;;;;;0.70;0.60;;;;;;;11.91;100.00;-21005.97;4977443;28;20444;-73
2021/10/19 03:46:48;;;;;;;1.20;1.10;;;;;;;11.92;100.00;-21006.25;4976589;28;20903;-72
2021/10/19 03:49:16;;;;;;;0.70;0.60;;;;;;;11.99;100.00;-21008.19;4977459;28;20427;-73
2021/10/19 03:51:42;;;;;;;0.70;0.60;;;;;;;11.93;100.00;-21006.53;4977502;28;20453;-71
2021/10/19 03:54:11;;;;;;;0.70;0.70;;;;;;;11.93;100.00;-21006.53;4976387;28;20928;-72
2021/10/19 03:56:39;;;;;;;0.70;0.60;;;;;;;11.93;100.00;-21006.53;4975517;28;20444;-74
2021/10/19 03:59:05;;;;;;;0.60;0.60;;;;;;;11.93;100.00;-21006.53;4977382;28;20862;-71
2021/10/19 04:01:32;;;;;;;1.00;0.90;;;;;;;11.94;100.00;-21006.81;4972979;28;20459;-73
2021/10/19 04:03:59;;;;;;;0.70;0.60;;;;;;;11.99;100.00;-21008.19;4976918;28;20949;-73
2021/10/19 04:06:28;;;;;;;0.70;0.60;;;;;;;12.07;100.00;-21010.41;4975937;28;20936;-73
2021/10/19 04:08:55;;;;;;;0.70;0.70;;;;;;;12.04;100.00;-21009.44;4973035;28;20999;-73
2021/10/19 04:11:23;;;;;;;0.80;0.80;;;;;;;12.04;100.00;-21009.56;4958888;28;20466;-74
2021/10/19 04:13:50;;;;;;;0.80;0.80;;;;;;;12.13;100.00;-21011.78;4975046;28;20543;-73
2021/10/19 04:16:18;;;;;;;0.70;0.60;;;;;;;12.13;100.00;-21011.78;4976885;28;20443;-73
2021/10/19 04:18:45;;;;;;;0.90;0.90;;;;;;;12.11;100.00;-21011.22;4976010;28;20814;-74
2021/10/19 04:21:11;;;;;;;0.70;0.60;;;;;;;12.17;100.00;-21012.88;4975586;28;20930;-73
2021/10/19 04:23:42;;;;;;;0.90;0.90;;;;;;;12.17;100.00;-21013.03;4975560;28;21001;-73
2021/10/19 04:26:09;;;;;;;0.63;0.60;;;;;;;12.23;100.00;-21014.53;4967466;28;20531;-74
2021/10/19 04:28:38;;;;;;;0.60;0.60;;;;;;;12.25;100.00;-21015.09;4975751;28;20538;-74
2021/10/19 04:31:05;;;;;;;1.00;0.90;;;;;;;12.28;100.00;-21015.91;4976353;28;20491;-73
2021/10/19 04:33:32;;;;;;;0.70;0.60;;;;;;;12.26;100.00;-21015.50;4973843;28;20471;-73
2021/10/19 04:35:59;;;;;;;0.70;0.60;;;;;;;12.26;100.00;-21015.50;4976704;28;20416;-73
2021/10/19 04:38:26;;;;;;;0.70;0.60;;;;;;;12.27;100.00;-21015.66;4974603;28;20487;-73
2021/10/19 04:40:53;;;;;;;0.70;0.70;;;;;;;12.32;100.00;-21017.03;4958767;28;20466;-74
2021/10/19 04:43:20;;;;;;;0.70;0.60;;;;;;;12.39;100.00;-21018.81;4976234;28;20464;-73
2021/10/19 04:45:51;;;;;;;0.60;0.60;;;;;;;12.38;100.00;-21018.69;4976602;28;20527;-74
2021/10/19 04:48:18;;;;;;;0.70;0.70;;;;;;;12.41;100.00;-21019.50;4976298;28;20430;-72
2021/10/19 04:50:45;;;;;;;0.70;0.60;;;;;;;12.45;100.00;-21020.63;4974478;28;20546;-74
2021/10/19 04:53:12;;;;;;;0.70;0.60;;;;;;;12.45;100.00;-21020.63;4959138;28;20520;-74
2021/10/19 04:55:40;;;;;;;0.70;0.60;;;;;;;12.39;100.00;-21018.97;4972298;28;20801;-73
2021/10/19 04:58:06;;;;;;;0.60;0.50;;;;;;;12.41;100.00;-21019.50;4974665;28;20995;-72
2021/10/19 05:00:36;;;;;;;0.60;0.60;;;;;;;12.45;100.00;-21020.63;4972971;28;20445;-73
2021/10/19 05:03:05;;;;;;;0.70;0.60;;;;;;;12.43;100.00;-21020.06;4955528;29;20536;-73
2021/10/19 05:05:31;;;;;;;0.70;0.70;;;;;;;12.53;100.00;-21022.81;4955222;29;20518;-73
2021/10/19 05:07:58;;;;;;;0.60;0.60;;;;;;;12.53;100.00;-21022.81;4955238;28;20503;-73
2021/10/19 05:10:25;;;;;;;0.70;0.60;;;;;;;12.45;100.00;-21020.63;4956001;28;20545;-73
2021/10/19 05:12:52;;;;;;;0.80;0.80;;;;;;;12.50;100.00;-21022.00;4974761;28;20440;-73
2021/10/19 05:15:21;;;;;;;1.13;1.00;;;;;;;12.53;100.00;-21022.69;4974630;28;20482;-74
2021/10/19 05:17:48;;;;;;;1.30;1.20;;;;;;;12.53;100.00;-21022.69;4975853;28;20424;-73
2021/10/19 05:20:16;;;;;;;0.70;0.60;;;;;;;12.56;100.00;-21023.50;4974177;28;20814;-72
2021/10/19 05:22:43;;;;;;;0.67;0.60;;;;;;;12.48;100.00;-21021.44;4974171;28;20469;-74
2021/10/19 05:25:12;;;;;;;0.93;0.87;;;;;;;12.52;100.00;-21022.41;4974676;28;20435;-73
2021/10/19 05:27:40;;;;;;;0.70;0.60;;;;;;;12.48;100.00;-21021.44;4976035;28;20410;-74
2021/10/19 05:30:08;;;;;;;0.70;0.60;;;;;;;12.52;100.00;-21022.53;4975228;28;20455;-73
2021/10/19 05:32:35;;;;;;;1.80;1.53;;;;;;;12.52;100.00;-21022.53;4990344;28;20512;-73
2021/10/19 05:35:02;;;;;;;0.67;0.60;;;;;;;12.49;100.00;-21021.72;4974399;28;20465;-73
2021/10/19 05:37:31;;;;;;;0.70;0.70;;;;;;;12.48;100.00;-21021.44;4970718;28;20478;-72
2021/10/19 05:39:58;;;;;;;0.70;0.67;;;;;;;12.53;100.00;-21022.69;4967846;28;20453;-73
2021/10/19 05:42:44;;;;;;;0.70;0.70;;;;;;;12.52;100.00;-21022.53;4975364;28;20430;-73
2021/10/19 05:45:11;;;;;;;0.70;0.60;;;;;;;12.50;100.00;-21021.84;4976734;28;20444;-73
2021/10/19 05:47:41;;;;;;;0.70;0.60;;;;;;;12.53;100.00;-21022.81;4979392;28;20447;-72
2021/10/19 05:50:09;;;;;;;1.07;0.97;;;;;;;12.53;100.00;-21022.81;4958236;28;20798;-72
2021/10/19 05:52:37;;;;;;;0.80;0.80;;;;;;;12.52;100.00;-21022.53;4954399;28;20488;-73
2021/10/19 05:55:05;;;;;;;0.70;0.70;;;;;;;12.52;100.00;-21022.53;4970617;28;20549;-72
2021/10/19 05:57:31;;;;;;;4.20;1.53;;;;;;;12.52;100.00;-21022.53;4971113;28;20478;-73
2021/10/19 05:59:58;;;;;;;0.70;0.60;;;;;;;12.59;100.00;-21024.34;4975034;28;20425;-74
2021/10/19 06:02:26;;;;;;;0.67;0.60;;;;;;;12.56;100.00;-21023.66;4973728;28;20444;-73
2021/10/19 06:04:53;;;;;;;0.67;0.60;;;;;;;12.53;100.00;-21022.81;4971114;28;20948;-72
2021/10/19 06:07:20;;;;;;;0.67;0.60;;;;;;;12.58;100.00;-21024.06;4955027;29;20520;-72
2021/10/19 06:09:50;;;;;;;0.70;0.60;;;;;;;12.55;100.00;-21023.38;4966422;28;20855;-72
2021/10/19 06:12:17;;;;;;;0.70;0.60;;;;;;;12.64;100.00;-21025.59;4973653;28;20863;-73
2021/10/19 06:14:45;;;;;;;0.70;0.60;;;;;;;12.66;100.00;-21026.13;4974352;28;20528;-73
2021/10/19 06:17:12;;;;;;;0.70;0.70;;;;;;;12.58;100.00;-21024.19;4973229;28;20481;-73
2021/10/19 06:19:40;;;;;;;0.70;0.63;;;;;;;12.56;100.00;-21023.50;4973234;28;20444;-73
2021/10/19 06:22:07;;;;;;;0.60;0.60;;;;;;;12.64;100.00;-21025.59;4989163;28;20434;-72
2021/10/19 06:24:34;;;;;;;0.70;0.60;;;;;;;12.64;100.00;-21025.59;4974381;28;20786;-73
2021/10/19 06:27:03;;;;;;;0.70;0.70;;;;;;;12.66;100.00;-21026.13;4973179;28;20534;-74
2021/10/19 06:29:30;;;;;;;0.60;0.60;;;;;;;12.63;100.00;-21025.31;4974413;28;20839;-74
2021/10/19 06:31:57;;;;;;;0.70;0.60;;;;;;;12.73;100.00;-21028.06;4974461;28;20559;-74
2021/10/19 06:34:24;;;;;;;0.60;0.50;;;;;;;12.77;100.00;-21029.16;4974226;28;20438;-72
2021/10/19 06:36:51;;;;;;;0.70;0.63;;;;;;;12.85;100.00;-21031.38;4973826;28;20443;-74
2021/10/19 06:39:18;;;;;;;1.27;1.17;;;;;;;12.84;100.00;-21031.09;4966914;28;20446;-73
2021/10/19 06:41:47;;;;;;;0.70;0.63;;;;;;;12.91;100.00;-21033.03;4968374;28;20442;-73
2021/10/19 06:44:16;;;;;;;1.00;0.90;;;;;;;12.94;100.00;-21033.84;4973686;28;20442;-73
2021/10/19 06:47:03;;;;;;;3.23;3.03;;;;;;;12.93;100.00;-21033.44;4974832;28;20459;-72
2021/10/19 06:49:31;;;;;;;0.70;0.60;;;;;;;12.97;100.00;-21034.69;4972368;28;20419;-73
2021/10/19 06:51:58;;;;;;;0.70;0.60;;;;;;;13.04;100.00;-21036.47;4972778;28;20555;-74
2021/10/19 06:54:25;;;;;;;0.90;0.90;;;;;;;13.05;100.00;-21036.88;4973805;28;20446;-73
2021/10/19 06:56:52;;;;;;;1.70;1.60;;;;;;;13.12;100.00;-21038.53;4974685;28;20452;-74
2021/10/19 06:59:20;;;;;;;0.63;0.60;;;;;;;13.24;100.00;-21042.00;4978447;28;20426;-73
2021/10/19 07:01:47;;;;;;;0.70;0.70;;;;;;;13.18;100.00;-21040.34;4978345;28;20437;-74
2021/10/19 07:04:14;;;;;;;0.70;0.60;;;;;;;13.31;100.00;-21043.66;4992851;28;20459;-72
2021/10/19 07:06:42;;;;;;;0.70;0.70;;;;;;;13.28;100.00;-21043.09;4978020;28;20470;-72
2021/10/19 07:09:09;;;;;;;0.70;0.60;;;;;;;13.36;100.00;-21045.16;4992472;28;20459;-73
2021/10/19 07:11:36;;;;;;;0.70;0.70;;;;;;;13.33;100.00;-21044.34;4977754;28;20507;-72
2021/10/19 07:14:03;;;;;;;0.60;0.60;;;;;;;13.36;100.00;-21045.16;4977624;28;20800;-72
2021/10/19 07:16:32;;;;;;;1.23;1.13;;;;;;;13.51;100.00;-21049.16;4976347;28;20810;-72
2021/10/19 07:18:59;;;;;;;0.70;0.70;;;;;;;13.61;100.00;-21051.91;4976700;28;20495;-72
2021/10/19 07:21:26;;;;;;;0.70;0.60;;;;;;;13.64;100.00;-21052.63;4976594;28;20435;-72
2021/10/19 07:23:53;;;;;;;0.70;0.70;;;;;;;13.66;100.00;-21053.31;4976273;28;20557;-72
2021/10/19 07:26:20;;;;;;;0.67;0.60;;;;;;;13.67;100.00;-21053.44;4977720;28;20444;-71
2021/10/19 07:28:46;;;;;;;0.60;0.60;;;;;;;13.72;100.00;-21054.81;4960712;28;21031;-72
2021/10/19 07:31:13;;;;;;;0.70;0.60;;;;;;;13.76;100.00;-21055.91;4957031;29;20897;-72
2021/10/19 07:33:42;;;;;;;1.17;1.13;;;;;;;13.80;100.00;-21056.88;4957993;28;20463;-72
2021/10/19 07:36:11;;;;;;;0.70;0.70;;;;;;;13.76;100.00;-21055.91;4975721;28;20494;-72
2021/10/19 07:38:38;;;;;;;0.70;0.60;;;;;;;13.79;100.00;-21056.75;4977543;28;20554;-72
2021/10/19 07:41:06;;;;;;;0.70;0.70;;;;;;;13.75;100.00;-21055.78;4977133;28;20405;-73
2021/10/19 07:43:33;;;;;;;0.70;0.70;;;;;;;13.78;100.00;-21056.47;4977365;28;20518;-72
2021/10/19 07:46:00;;;;;;;0.70;0.70;;;;;;;13.89;100.00;-21059.50;4976866;28;20470;-71
2021/10/19 07:48:27;;;;;;;0.70;0.70;;;;;;;13.84;100.00;-21058.13;4977491;28;20419;-72
2021/10/19 07:50:56;;;;;;;0.70;0.60;;;;;;;13.82;100.00;-21057.44;4974546;28;20474;-72
2021/10/19 07:53:23;;;;;;;0.63;0.60;;;;;;;13.78;100.00;-21056.59;4976941;28;20477;-72
2021/10/19 07:55:52;;;;;;;0.70;0.60;;;;;;;13.80;100.00;-21056.88;4977069;28;20410;-72
2021/10/19 07:58:19;;;;;;;0.70;0.60;;;;;;;13.80;100.00;-21056.88;4977291;28;20446;-71
2021/10/19 08:00:46;;;;;;;0.70;0.63;;;;;;;13.83;100.00;-21057.72;4972513;28;20472;-72
2021/10/19 08:03:13;;;;;;;0.70;0.70;;;;;;;13.85;100.00;-21058.25;4957835;28;20790;-72
2021/10/19 08:05:42;;;;;;;0.70;0.60;;;;;;;13.93;100.00;-21060.47;4988904;28;20483;-72
2021/10/19 08:08:12;;;;;;;0.70;0.70;;;;;;;13.94;100.00;-21060.88;4972952;28;20798;-72
2021/10/19 08:10:42;;;;;;;0.70;0.60;;;;;;;13.81;100.00;-21057.16;4963698;28;20429;-72
2021/10/19 08:13:09;;;;;;;0.70;0.70;;;;;;;13.91;100.00;-21060.03;4971186;28;20555;-72
2021/10/19 08:15:37;;;;;;;0.70;0.60;;;;;;;13.96;100.00;-21061.44;4964608;28;20478;-72
2021/10/19 08:18:08;;;;;;;0.80;0.80;;;;;;;14.05;100.00;-21063.63;4975670;28;20787;-72
2021/10/19 08:20:36;;;;;;;0.70;0.70;;;;;;;14.03;100.00;-21063.22;4976269;28;20526;-72
2021/10/19 08:23:04;;;;;;;0.70;0.60;;;;;;;13.98;100.00;-21061.97;4976274;28;20489;-71
2021/10/19 08:25:32;;;;;;;0.70;0.60;;;;;;;14.01;100.00;-21062.81;4976032;28;20844;-72
2021/10/19 08:28:00;;;;;;;0.70;0.60;;;;;;;14.06;100.00;-21064.03;4976308;28;20442;-72
2021/10/19 08:30:28;;;;;;;0.70;0.63;;;;;;;14.08;100.00;-21064.47;4975014;28;20978;-72
2021/10/19 08:32:55;;;;;;;0.70;0.70;;;;;;;14.14;100.00;-21066.09;4975200;28;20464;-72
2021/10/19 08:35:23;;;;;;;0.70;0.60;;;;;;;14.17;100.00;-21067.06;4976482;28;20878;-72
2021/10/19 08:37:50;;;;;;;0.70;0.70;;;;;;;14.26;100.00;-21069.41;4976450;28;20465;-72
2021/10/19 08:40:18;;;;;;;0.70;0.60;;;;;;;14.20;100.00;-21067.91;4960864;28;20524;-72
2021/10/19 08:42:52;;;;;;;0.77;0.77;;;;;;;14.33;100.00;-21071.22;4969214;28;20839;-71
2021/10/19 08:45:20;;;;;;;0.70;0.60;;;;;;;14.44;100.00;-21074.38;4958513;28;20487;-70
2021/10/19 08:47:48;;;;;;;0.70;0.60;;;;;;;14.48;100.00;-21075.47;4976416;28;20441;-73
2021/10/19 08:50:18;;;;;;;0.70;0.60;;;;;;;14.58;100.00;-21078.09;4976071;28;20426;-72
2021/10/19 08:52:47;;;;;;;0.70;0.63;;;;;;;14.76;100.00;-21082.91;4976489;28;20500;-71
2021/10/19 08:55:14;;;;;;;0.80;0.80;;;;;;;14.81;100.00;-21084.16;4991135;28;20427;-70
2021/10/19 08:57:41;;;;;;;0.70;0.60;;;;;;;14.86;100.00;-21085.66;4976057;28;20582;-70
2021/10/19 09:00:12;;;;;;;0.70;0.60;;;;;;;15.05;100.00;-21090.63;4976051;28;20523;-72
2021/10/19 09:02:40;;;;;;;0.70;0.70;;;;;;;15.04;100.00;-21090.34;4976331;28;20443;-71
2021/10/19 09:05:14;;;;;;;1.63;1.17;;;;;;;15.00;100.00;-21089.38;4977638;28;20443;-72
2021/10/19 09:07:55;;;;;;;0.70;0.70;;;;;;;14.97;100.00;-21088.56;4990434;28;20974;-72
2021/10/19 09:10:24;;;;;;;0.70;0.60;;;;;;;14.93;100.00;-21087.59;4973857;28;20541;-72
2021/10/19 09:12:56;;;;;;;0.70;0.60;;;;;;;14.94;100.00;-21087.84;4974559;28;20499;-72
2021/10/19 09:15:27;;;;;;;0.70;0.60;;;;;;;15.05;100.00;-21090.63;4976076;28;20420;-72
2021/10/19 09:18:00;;;;;;;0.70;0.60;;;;;;;15.09;100.00;-21091.84;4975485;28;20963;-72
2021/10/19 09:20:27;;;;;;;0.70;0.60;;;;;;;15.11;100.00;-21092.25;4973644;28;20514;-72
2021/10/19 09:22:57;;;;;;;1.10;1.00;;;;;;;15.17;100.00;-21093.91;4974521;28;20887;-71
2021/10/19 09:25:28;;;;;;;0.70;0.60;;;;;;;15.31;100.00;-21097.75;4974759;28;20441;-71
2021/10/19 09:27:56;;;;;;;0.70;0.60;;;;;;;15.37;100.00;-21099.41;4974485;28;20526;-70
2021/10/19 09:30:33;;;;;;;0.70;0.67;;;;;;;15.44;100.00;-21101.19;4975493;28;20435;-72
2021/10/19 09:33:01;;;;;;;0.70;0.60;;;;;;;15.39;100.00;-21099.97;4975324;28;20451;-70
2021/10/19 09:35:29;;;;;;;0.70;0.60;;;;;;;15.53;100.00;-21103.53;4973885;28;20534;-70
2021/10/19 09:37:59;;;;;;;0.70;0.70;;;;;;;15.53;100.00;-21103.53;4972959;28;20567;-71
2021/10/19 09:40:31;;;;;;;0.80;0.80;;;;;;;15.65;100.00;-21106.84;4965991;28;20482;-70
2021/10/19 09:42:59;;;;;;;0.70;0.70;;;;;;;15.64;100.00;-21106.56;4975369;28;20418;-73
2021/10/19 09:45:26;;;;;;;0.80;0.70;;;;;;;15.53;100.00;-21103.69;4975237;28;20408;-72
2021/10/19 09:47:56;;;;;;;0.70;0.60;;;;;;;15.52;100.00;-21103.25;4973960;28;21002;-70
2021/10/19 09:50:24;;;;;;;0.70;0.63;;;;;;;15.48;100.00;-21102.16;4973419;28;20714;-71
2021/10/19 09:52:52;;;;;;;0.70;0.70;;;;;;;15.47;100.00;-21102.03;4974003;28;20478;-72
2021/10/19 09:55:21;;;;;;;0.70;0.70;;;;;;;15.45;100.00;-21101.63;4974745;28;20955;-70
2021/10/19 09:57:51;;;;;;;0.70;0.60;;;;;;;15.42;100.00;-21100.78;4958528;28;20439;-70
2021/10/19 10:00:19;;;;;;;0.70;0.60;;;;;;;15.56;100.00;-21104.50;4975389;28;20427;-71
2021/10/19 10:02:46;;;;;;;0.70;0.70;;;;;;;15.70;100.00;-21108.22;4974204;28;20438;-71
2021/10/19 10:05:16;;;;;;;0.70;0.70;;;;;;;15.90;100.00;-21113.72;4973689;28;20830;-70
2021/10/19 10:07:47;;;;;;;0.70;0.60;;;;;;;15.90;100.00;-21113.56;4974693;28;20449;-71
2021/10/19 10:10:16;;;;;;;0.70;0.60;;;;;;;15.87;100.00;-21112.75;4971646;28;20571;-71
2021/10/19 10:12:49;;;;;;;0.70;0.70;;;;;;;15.87;100.00;-21112.75;4974579;28;20474;-70
2021/10/19 10:15:24;;;;;;;0.70;0.70;;;;;;;15.68;100.00;-21107.66;4974513;28;20416;-72
2021/10/19 10:18:00;;;;;;;0.70;0.60;;;;;;;15.65;100.00;-21106.97;4971165;28;20498;-72
2021/10/19 10:20:35;;;;;;;0.70;0.60;;;;;;;15.56;100.00;-21104.38;4974595;28;20532;-72
2021/10/19 10:23:17;;;;;;;0.70;0.63;;;;;;;15.62;100.00;-21106.16;4973404;28;20896;-72
2021/10/19 10:25:46;;;;;;;0.70;0.70;;;;;;;15.62;100.00;-21106.00;4973971;28;20466;-73
2021/10/19 10:28:16;;;;;;;0.70;0.70;;;;;;;15.62;100.00;-21106.16;4974679;28;20447;-72
2021/10/19 10:30:46;;;;;;;0.70;0.60;;;;;;;15.66;100.00;-21107.25;4989220;28;20490;-71
2021/10/19 10:33:15;;;;;;;0.70;0.60;;;;;;;15.53;100.00;-21103.53;4975183;28;20987;-70
2021/10/19 10:35:45;;;;;;;0.70;0.70;;;;;;;15.60;100.00;-21105.47;4974693;28;20426;-73
2021/10/19 10:38:14;;;;;;;0.70;0.70;;;;;;;15.52;100.00;-21103.25;4989164;28;20469;-72
2021/10/19 10:40:44;;;;;;;0.70;0.70;;;;;;;15.60;100.00;-21105.47;4973219;28;20431;-72
2021/10/19 10:43:32;;;;;;;0.70;0.70;;;;;;;15.48;100.00;-21102.16;4967881;28;20522;-73
2021/10/19 10:46:04;;;;;;;0.80;0.80;;;;;;;15.53;100.00;-21103.69;4974402;28;20820;-73
2021/10/19 10:48:31;;;;;;;0.70;0.70;;;;;;;15.47;100.00;-21102.03;4972902;28;20463;-73
2021/10/19 10:51:02;;;;;;;0.70;0.70;;;;;;;15.50;100.00;-21102.72;4957328;28;20938;-74
2021/10/19 10:53:34;;;;;;;0.70;0.60;;;;;;;15.54;100.00;-21103.94;4973205;28;20487;-73
2021/10/19 10:56:03;;;;;;;0.70;0.60;;;;;;;15.55;100.00;-21104.09;4974061;28;20977;-74
2021/10/19 10:58:34;;;;;;;0.70;0.60;;;;;;;15.59;100.00;-21105.19;4973212;28;20477;-73
2021/10/19 11:01:14;;;;;;;0.70;0.60;;;;;;;15.57;100.00;-21104.63;4974791;28;20919;-74
2021/10/19 11:03:42;;;;;;;0.70;0.60;;;;;;;15.62;100.00;-21106.00;4972928;28;20447;-74
2021/10/19 11:06:12;;;;;;;0.70;0.60;;;;;;;15.66;100.00;-21107.25;4974480;28;20523;-74
2021/10/19 11:08:43;;;;;;;0.70;0.70;;;;;;;15.73;100.00;-21109.03;4972939;28;20451;-72
2021/10/19 11:11:12;;;;;;;0.70;0.60;;;;;;;15.76;100.00;-21109.88;4955196;28;20436;-74
2021/10/19 11:13:49;;;;;;;0.80;0.80;;;;;;;15.76;100.00;-21109.88;4953527;28;20502;-74
2021/10/19 11:16:17;;;;;;;0.70;0.60;;;;;;;15.83;100.00;-21111.78;4963106;28;20444;-73
2021/10/19 11:18:44;;;;;;;1.27;1.17;;;;;;;15.85;100.00;-21112.19;4973084;28;20932;-73
2021/10/19 11:21:12;;;;;;;1.53;1.00;;;;;;;15.89;100.00;-21113.44;4974194;28;20948;-74
2021/10/19 11:23:40;;;;;;;0.70;0.60;;;;;;;15.91;100.00;-21114.00;4988484;28;20554;-72
2021/10/19 11:26:08;;;;;;;0.70;0.70;;;;;;;15.94;100.00;-21114.66;4973698;28;20426;-72